createdAt,value
2022-07-29T00:02:00.709Z,18.00
2022-07-29T00:25:43.948Z,18.00
2022-07-29T04:06:27.736Z,17.50
2022-07-29T04:16:18.797Z,17.30
2022-07-29T04:45:22.335Z,17.40
2022-07-29T05:05:35.731Z,17.50
2022-07-29T06:46:23.559Z,17.80
2022-07-29T06:57:37.007Z,17.90
2022-07-29T07:00:44.710Z,18.00
2022-07-29T16:01:33.462Z,27.90
2022-07-29T16:04:00.580Z,28.00
2022-07-29T16:06:38.666Z,28.00
2022-07-29T17:17:39.546Z,27.50
2022-07-29T17:20:13.495Z,27.30
2022-07-29T17:23:54.739Z,27.00
2022-07-29T17:26:08.330Z,26.80
2022-07-29T17:28:53.044Z,26.80
2022-07-29T17:35:21.155Z,26.70
2022-07-29T17:38:01.367Z,26.20
2022-07-29T17:40:29.808Z,26.20
2022-07-29T17:42:57.020Z,26.10
2022-07-29T17:45:50.303Z,26.10
2022-07-29T17:48:27.680Z,26.10
2022-07-29T17:50:57.338Z,26.00
2022-07-29T17:53:32.984Z,25.70
2022-07-29T17:56:21.661Z,25.70
2022-07-29T17:58:58.558Z,25.70
2022-07-29T18:01:46.706Z,25.40
2022-07-29T18:04:25.227Z,25.30
2022-07-29T18:07:01.417Z,25.40
2022-07-29T18:09:34.287Z,25.40
2022-07-29T18:12:03.908Z,25.40
2022-07-29T18:14:33.104Z,25.20
2022-07-29T18:17:02.781Z,25.10
2022-07-29T18:19:32.057Z,25.00
2022-07-29T18:22:05.333Z,24.50
2022-07-29T18:24:35.945Z,24.30
2022-07-29T18:27:06.194Z,24.50
2022-07-29T18:29:36.886Z,24.60
2022-07-29T18:32:08.325Z,24.60
2022-07-29T18:34:37.780Z,24.50
2022-07-29T18:37:10.137Z,24.40
2022-07-29T18:39:39.942Z,24.20
2022-07-29T18:42:12.281Z,24.00
2022-07-29T18:44:43.826Z,24.00
2022-07-29T18:47:16.830Z,24.00
2022-07-29T18:49:51.579Z,24.00
2022-07-29T18:52:24.631Z,24.00
2022-07-29T18:54:57.949Z,23.90
2022-07-29T18:57:54.116Z,23.80
2022-07-29T19:00:22.268Z,23.90
2022-07-29T19:02:52.947Z,23.80
2022-07-29T19:05:20.763Z,23.80
2022-07-29T19:07:50.690Z,23.70
2022-07-29T19:10:20.888Z,23.60
2022-07-29T19:12:54.900Z,23.60
2022-07-29T19:15:23.363Z,23.30
2022-07-29T19:17:54.770Z,23.40
2022-07-29T19:20:30.509Z,23.30
2022-07-29T19:22:58.778Z,23.30
2022-07-29T19:25:35.796Z,23.20
2022-07-29T19:28:07.292Z,23.20
2022-07-29T19:30:36.926Z,23.20
2022-07-29T19:33:07.452Z,23.10
2022-07-29T19:35:36.913Z,23.00
2022-07-29T19:38:07.065Z,22.90
2022-07-29T19:40:39.159Z,22.90
2022-07-29T19:43:51.023Z,22.70
2022-07-29T19:46:00.075Z,22.80
2022-07-29T19:48:32.300Z,22.80
2022-07-29T19:51:12.091Z,22.70
2022-07-29T19:53:41.632Z,22.60
2022-07-29T19:56:11.864Z,22.60
2022-07-29T19:58:41.284Z,22.50
2022-07-29T20:01:11.441Z,22.50
2022-07-29T20:03:54.461Z,22.50
2022-07-29T20:06:27.920Z,22.40
2022-07-29T20:09:02.646Z,22.40
2022-07-29T20:11:36.729Z,22.30
2022-07-29T20:14:07.292Z,22.30
2022-07-29T20:16:39.611Z,22.20
2022-07-29T20:19:10.596Z,22.20
2022-07-29T20:21:41.024Z,22.20
2022-07-29T20:24:10.797Z,22.10
2022-07-29T20:26:41.136Z,22.10
2022-07-29T20:29:10.895Z,22.00
2022-07-29T20:31:45.237Z,21.90
2022-07-29T20:34:27.279Z,21.90
2022-07-29T20:37:02.790Z,21.90
2022-07-29T20:39:32.691Z,21.80
2022-07-29T20:41:59.984Z,21.80
2022-07-29T20:44:30.855Z,21.70
2022-07-29T20:47:00.945Z,21.60
2022-07-29T20:49:29.961Z,21.70
2022-07-29T20:51:57.036Z,21.60
2022-07-29T20:54:27.139Z,21.50
2022-07-29T20:57:00.313Z,21.50
2022-07-29T20:59:30.719Z,21.50
2022-07-29T21:02:01.955Z,21.40
2022-07-29T21:04:32.706Z,21.30
2022-07-29T21:07:06.648Z,21.30
2022-07-29T21:09:35.034Z,21.30
2022-07-29T21:12:04.760Z,21.30
2022-07-29T21:14:40.924Z,21.30
2022-07-29T21:17:11.478Z,21.20
2022-07-29T21:19:46.583Z,21.20
2022-07-29T21:22:19.600Z,21.20
2022-07-29T21:24:49.293Z,21.10
2022-07-29T21:27:35.368Z,21.10
2022-07-29T21:30:09.327Z,21.00
2022-07-29T21:32:43.396Z,21.00
2022-07-29T21:35:22.349Z,21.00
2022-07-29T21:38:01.987Z,21.00
2022-07-29T21:40:34.433Z,20.90
2022-07-29T21:43:03.760Z,20.90
2022-07-29T21:45:37.746Z,20.90
2022-07-29T21:48:06.033Z,20.80
2022-07-29T21:50:33.819Z,20.80
2022-07-29T21:53:04.365Z,20.80
2022-07-29T21:55:33.620Z,20.80
2022-07-29T21:58:03.132Z,20.70
2022-07-29T22:00:34.076Z,20.70
2022-07-29T22:03:05.089Z,20.70
2022-07-29T22:05:33.890Z,20.60
2022-07-29T22:08:02.147Z,20.60
2022-07-29T22:10:30.889Z,20.60
2022-07-29T22:12:59.959Z,20.50
2022-07-29T22:15:30.570Z,20.50
2022-07-29T22:18:01.210Z,20.50
2022-07-29T22:20:31.555Z,20.40
2022-07-29T22:23:03.000Z,20.40
2022-07-29T22:25:39.538Z,20.40
2022-07-29T22:28:46.278Z,20.40
2022-07-29T22:31:40.702Z,20.40
2022-07-29T22:34:13.744Z,20.30
2022-07-29T22:36:48.083Z,20.30
2022-07-29T22:43:06.518Z,20.30
2022-07-29T22:46:31.678Z,20.20
2022-07-29T22:49:16.680Z,20.20
2022-07-29T22:51:58.033Z,20.20
2022-07-29T23:02:15.095Z,20.10
2022-07-29T23:05:01.687Z,20.00
2022-07-29T23:08:15.872Z,20.00
2022-07-29T23:10:56.541Z,19.90
2022-07-29T23:20:31.171Z,19.90
2022-07-29T23:23:32.394Z,19.80
2022-07-29T23:27:19.971Z,19.80
2022-07-29T23:30:14.691Z,19.80
2022-07-29T23:33:37.211Z,19.70
2022-07-29T23:37:05.667Z,19.70
2022-07-29T23:40:10.824Z,19.70
2022-07-29T23:43:14.083Z,19.70
2022-07-29T23:46:14.451Z,19.60
2022-07-29T23:49:11.936Z,19.60
2022-07-29T23:53:17.127Z,19.60
2022-07-29T23:56:46.477Z,19.60
2022-07-29T23:59:34.805Z,19.60
